Latest Weather Observations for Cape Naturaliste

IDW60801

Issued at 6:33 pm WST Monday 20 May 2019 (issued every 10 minutes, with the page automatically refreshed every 10 minutes)

About weather observations | Map of weather stations | Latest weather observations for WA | Other Formats
Station Details ID: 009519 Name: CAPE NATURALISTE Lat: -33.54 Lon: 115.02 Height: 109.0 m
Data from the previous 72 hours. | See also: Recent months at Cape Naturaliste
Date/Time
WST
Temp
°C
App
Temp
°C
Dew
Point
°C
Rel
Hum
%
Delta-T
°C
Wind Press
QNH
hPa
Press
MSL
hPa
Rain since
9am
mm
Dir  Spd
km/h
Gust
km/h
Spd
kts
Gust
kts
20/06:30pm 14.9 9.0 7.7 62 3.6 WSW 28 37 15 20 1018.7 1018.6 0.0
20/06:00pm 15.6 10.0 8.8 64 3.5 WSW 28 35 15 19 1018.4 1018.3 0.0
20/05:30pm 15.4 9.6 9.3 67 3.2 WSW 30 39 16 21 1018.0 1017.9 0.0
20/05:00pm 16.1 10.5 10.0 67 3.2 WSW 30 41 16 22 1017.7 1017.6 0.0
20/04:30pm 16.2 11.8 10.5 69 3.0 WSW 24 32 13 17 1017.8 1017.7 0.0
20/04:00pm 16.7 11.5 10.3 66 3.4 WSW 28 41 15 22 1017.5 1017.4 0.0
20/03:30pm 17.3 11.7 10.0 62 3.9 WSW 30 43 16 23 1017.2 1017.1 0.0
20/03:00pm 18.1 12.0 9.7 58 4.4 WSW 32 41 17 22 1016.9 1016.8 0.0
20/02:30pm 18.5 13.3 10.3 59 4.4 WSW 28 37 15 20 1016.5 1016.4 0.0
20/02:00pm 19.7 14.2 9.3 51 5.5 WSW 28 39 15 21 1016.3 1016.2 0.0
20/01:30pm 20.0 14.2 9.6 51 5.6 W 30 39 16 21 1016.1 1016.0 0.0
20/01:00pm 19.4 13.1 9.0 51 5.5 WSW 32 41 17 22 1016.0 1015.9 0.0
20/12:30pm 19.7 13.7 10.1 54 5.2 WSW 32 43 17 23 1016.0 1015.9 0.0
20/12:00pm 19.2 13.4 9.4 53 5.2 WSW 30 39 16 21 1016.2 1016.1 0.0
20/11:30am 19.1 13.2 10.6 58 4.6 WSW 32 39 17 21 1016.3 1016.2 0.0
20/11:00am 18.9 13.1 10.7 59 4.4 WSW 32 41 17 22 1016.2 1016.1 0.0
20/10:30am 18.4 12.7 11.0 62 4.0 WSW 32 39 17 21 1016.0 1015.9 0.0
20/10:00am 16.9 10.7 10.1 64 3.6 W 33 46 18 25 1015.9 1015.8 0.0
20/09:30am 16.5 10.4 9.7 64 3.6 WSW 32 43 17 23 1015.7 1015.6 0.0
20/09:00am 17.3 11.5 10.9 66 3.5 W 32 43 17 23 1015.4 1015.3 0.8
20/08:30am 16.3 11.3 11.0 71 2.9 WSW 28 37 15 20 1015.0 1014.9 0.8
20/08:16am 15.4 10.2 10.4 72 2.6 SW 28 50 15 27 1014.7 1014.6 0.8
20/08:00am 16.3 11.3 10.8 70 2.9 WSW 28 41 15 22 1014.6 1014.5 0.8
20/07:30am 15.8 9.9 9.2 65 3.4 WSW 30 39 16 21 1013.9 1013.7 0.8
20/07:00am 15.3 8.3 8.3 63 3.5 WSW 35 46 19 25 1013.2 1013.0 0.8
20/06:30am 15.4 9.2 9.3 67 3.2 WSW 32 41 17 22 1012.7 1012.5 0.8
20/06:00am 15.3 8.8 8.1 62 3.6 WSW 32 43 17 23 1012.6 1012.4 0.8
20/05:30am 15.1 7.6 7.9 62 3.6 WSW 37 48 20 26 1012.4 1012.2 0.8
20/05:00am 15.6 9.0 9.9 69 3.0 WSW 35 44 19 24 1011.8 1011.6 0.8
20/04:38am 16.0 9.2 10.5 70 2.9 WSW 37 57 20 31 1011.4 1011.2 0.8
20/04:30am 15.7 9.0 9.8 68 3.1 WSW 35 44 19 24 1011.5 1011.3 0.8
20/04:00am 15.6 8.2 9.9 69 3.0 WSW 39 56 21 30 1011.3 1011.1 0.8
20/03:57am 15.6 8.6 9.9 69 3.0 WSW 37 56 20 30 1011.3 1011.1 0.8
20/03:30am 15.4 8.6 10.6 73 2.5 WSW 37 46 20 25 1011.2 1011.0 0.8
20/03:00am 15.3 8.0 11.5 78 2.1 WSW 41 57 22 31 1011.1 1010.9 0.8
20/02:30am 15.2 7.6 12.5 84 1.5 WSW 44 56 24 30 1010.7 1010.5 0.8
20/02:00am 15.5 7.9 13.5 88 1.1 WSW 46 61 25 33 1010.5 1010.3 0.8
20/01:46am 15.7 8.1 13.7 88 1.1 WSW 46 65 25 35 1010.1 1009.9 0.8
20/01:30am 16.5 9.5 14.3 87 1.3 W 44 59 24 32 1010.1 1009.9 0.8
20/01:26am 16.9 9.6 14.5 86 1.4 WNW 46 63 25 34 1010.1 1009.9 0.8
20/01:18am 17.9 12.0 15.7 87 1.3 NW 41 63 22 34 1009.8 1009.6 0.2
20/01:00am 18.1 11.2 15.7 86 1.4 NNW 46 63 25 34 1009.6 1009.4 0.2
20/12:54am 18.1 11.8 15.7 86 1.4 NNW 43 63 23 34 1009.6 1009.4 0.2
20/12:30am 17.5 11.5 15.5 88 1.2 NNW 41 56 22 30 1010.0 1009.8 0.2
20/12:00am 17.5 12.3 15.5 88 1.2 NNW 37 52 20 28 1010.3 1010.1 0.0
 
Date/Time
WST
Temp
°C
App
Temp
°C
Dew
Point
°C
Rel
Hum
%
Delta-T
°C
Wind Press
QNH
hPa
Press
MSL
hPa
Rain since
9am
mm
Dir  Spd
km/h
Gust
km/h
Spd
kts
Gust
kts
19/11:30pm 17.5 11.1 14.4 82 1.8 NNW 41 56 22 30 1010.6 1010.4 0.0
19/11:01pm 18.2 12.3 13.7 75 2.6 N 37 56 20 30 1010.7 1010.5 0.0
19/11:00pm 18.2 12.3 13.7 75 2.6 N 37 50 20 27 1010.7 1010.5 0.0
19/10:30pm 18.1 11.6 13.0 72 2.9 N 39 50 21 27 1011.1 1010.9 0.0
19/10:00pm 17.9 12.0 12.4 70 3.1 N 35 46 19 25 1011.5 1011.3 0.0
19/09:30pm 17.7 11.3 11.9 69 3.2 N 37 48 20 26 1012.1 1011.9 0.0
19/09:00pm 17.5 11.3 11.3 67 3.4 N 35 46 19 25 1012.0 1011.8 0.0
19/08:30pm 17.4 11.1 11.0 66 3.5 N 35 44 19 24 1012.2 1012.0 0.0
19/08:00pm 17.0 10.9 10.4 65 3.5 N 33 43 18 23 1012.7 1012.5 0.0
19/07:30pm 16.8 10.5 9.7 63 3.7 N 33 46 18 25 1013.3 1013.1 0.0
19/07:00pm 16.5 11.0 10.4 67 3.2 N 30 39 16 21 1013.2 1013.0 0.0
19/06:30pm 16.3 10.8 10.4 68 3.1 N 30 39 16 21 1013.5 1013.3 0.0
19/06:00pm 15.7 10.1 10.0 69 3.0 N 30 39 16 21 1013.7 1013.5 0.0
19/05:30pm 15.7 9.5 9.4 66 3.3 N 32 43 17 23 1013.8 1013.6 0.0
19/05:00pm 15.6 9.1 9.1 65 3.4 N 33 43 18 23 1013.7 1013.5 0.0
19/04:30pm 15.6 9.2 9.3 66 3.3 N 33 44 18 24 1014.1 1013.9 0.0
19/04:00pm 15.7 9.4 9.1 65 3.4 N 32 41 17 22 1014.5 1014.3 0.0
19/03:30pm 16.7 10.3 9.4 62 3.8 N 33 43 18 23 1014.2 1014.0 0.0
19/03:00pm 15.8 8.9 8.8 63 3.6 NNE 35 44 19 24 1014.6 1014.5 0.0
19/02:30pm 16.8 10.0 9.2 61 4.0 N 35 46 19 25 1014.8 1014.7 0.0
19/02:00pm 16.2 9.8 9.2 63 3.6 NNE 33 43 18 23 1015.2 1015.1 0.0
19/01:30pm 17.9 11.6 9.0 56 4.7 NNE 32 43 17 23 1015.8 1015.7 0.0
19/01:00pm 16.1 9.6 9.1 63 3.6 N 33 46 18 25 1016.3 1016.2 0.0
19/12:30pm 15.5 9.1 8.7 64 3.5 N 32 41 17 22 1016.7 1016.6 0.0
19/12:00pm 15.9 9.7 9.3 65 3.4 N 32 43 17 23 1017.6 1017.5 0.0
19/11:30am 15.7 9.2 8.9 64 3.5 N 33 43 18 23 1018.0 1017.9 0.0
19/11:00am 15.5 9.2 9.0 65 3.3 N 32 41 17 22 1018.6 1018.5 0.0
19/10:30am 15.3 9.3 8.8 65 3.3 N 30 41 16 22 1019.2 1019.0 0.0
19/10:00am 14.8 8.3 8.3 65 3.3 N 32 43 17 23 1019.4 1019.2 0.0
19/09:30am 14.6 8.2 8.5 67 3.1 NNE 32 44 17 24 1019.3 1019.1 0.0
19/09:00am 14.5 8.1 8.5 67 3.0 NNE 32 41 17 22 1019.4 1019.2 0.0
19/08:30am 14.2 8.4 7.9 66 3.1 NNE 28 37 15 20 1019.5 1019.3 0.0
19/08:00am 14.1 8.4 8.3 68 2.9 NNE 28 35 15 19 1019.4 1019.2 0.0
19/07:30am 13.9 7.8 8.1 68 2.9 N 30 39 16 21 1019.2 1019.0 0.0
19/07:00am 13.9 8.2 8.3 69 2.8 NNE 28 35 15 19 1019.1 1018.9 0.0
19/06:30am 14.1 8.3 8.1 67 3.0 NNE 28 35 15 19 1019.0 1018.8 0.0
19/06:00am 13.8 8.5 8.4 70 2.7 NNE 26 33 14 18 1019.0 1018.8 0.0
19/05:30am 13.9 8.4 9.1 73 2.5 NNE 28 35 15 19 1019.2 1019.0 0.0
19/05:00am 13.5 8.5 9.7 78 2.0 NE 26 33 14 18 1019.6 1019.4 0.0
19/04:30am 11.0 7.8 8.4 84 1.3 ESE 15 22 8 12 1019.9 1019.7 0.0
19/04:00am 10.7 7.1 8.3 85 1.2 ESE 17 26 9 14 1020.0 1019.8 0.0
19/03:30am 10.6 6.6 8.2 85 1.2 ESE 19 22 10 12 1020.3 1020.1 0.0
19/03:00am 10.4 6.8 8.2 86 1.1 ESE 17 19 9 10 1020.8 1020.6 0.0
19/02:30am 9.8 6.0 7.6 86 1.1 ESE 17 20 9 11 1021.0 1020.8 0.0
19/02:00am 9.6 5.8 7.4 86 1.0 SE 17 19 9 10 1021.0 1020.8 0.0
19/01:30am 9.3 5.4 6.9 85 1.1 SE 17 19 9 10 1021.2 1021.0 0.0
19/01:00am 9.4 5.4 6.8 84 1.2 SE 17 20 9 11 1021.2 1021.0 0.0
19/12:30am 9.3 5.3 6.6 83 1.3 ESE 17 19 9 10 1021.6 1021.4 0.0
19/12:00am 9.2 5.1 6.3 82 1.3 SE 17 20 9 11 1021.8 1021.6 0.0
 
Date/Time
WST
Temp
°C
App
Temp
°C
Dew
Point
°C
Rel
Hum
%
Delta-T
°C
Wind Press
QNH
hPa
Press
MSL
hPa
Rain since
9am
mm
Dir  Spd
km/h
Gust
km/h
Spd
kts
Gust
kts
18/11:30pm 9.1 4.9 5.8 80 1.5 SE 17 19 9 10 1022.0 1021.8 0.0
18/11:00pm 9.2 5.0 5.9 80 1.5 SE 17 19 9 10 1022.3 1022.1 0.0
18/10:30pm 9.6 5.2 6.5 81 1.5 SE 19 20 10 11 1022.1 1021.9 0.0
18/10:00pm 9.7 5.6 6.2 79 1.6 SE 17 20 9 11 1022.6 1022.5 0.0
18/09:30pm 10.1 6.0 6.3 77 1.8 SE 17 20 9 11 1022.6 1022.5 0.0
18/09:00pm 10.7 6.7 6.5 75 2.0 SSE 17 20 9 11 1022.7 1022.6 0.0
18/08:30pm 11.2 6.8 6.7 74 2.1 SSE 19 22 10 12 1022.9 1022.8 0.0
18/08:00pm 11.3 7.3 6.8 74 2.1 SSE 17 20 9 11 1022.9 1022.8 0.0
18/07:30pm 11.4 7.4 6.5 72 2.3 SSE 17 20 9 11 1022.8 1022.7 0.0
18/07:00pm 11.9 8.2 6.4 69 2.6 S 15 17 8 9 1022.8 1022.7 0.0
18/06:30pm 13.3 11.0 7.5 68 2.9 SSW 9 15 5 8 1022.8 1022.7 0.0
18/06:00pm 13.4 11.1 7.4 67 2.9 W 9 13 5 7 1022.7 1022.6 0.0
18/05:30pm 14.0 11.7 7.3 64 3.3 W 9 13 5 7 1022.6 1022.5 0.0
18/05:00pm 15.3 12.7 7.6 60 3.8 WSW 11 15 6 8 1022.7 1022.6 0.0
18/04:30pm 16.7 14.7 8.7 59 4.1 WNW 9 13 5 7 1022.7 1022.6 0.0
18/04:00pm 16.8 14.7 8.2 57 4.4 WNW 9 13 5 7 1022.8 1022.7 0.0
18/03:30pm 16.6 14.4 7.8 56 4.5 NW 9 13 5 7 1022.7 1022.6 0.0
18/03:00pm 16.9 14.8 9.6 62 3.8 N 11 17 6 9 1022.8 1022.7 0.0
18/02:30pm 14.9 12.3 7.9 63 3.5 N 11 15 6 8 1023.1 1023.0 0.0
18/02:00pm 17.0 14.2 8.7 58 4.3 N 13 19 7 10 1023.1 1023.0 0.0
18/01:30pm 15.7 13.2 8.2 61 3.8 NNE 11 17 6 9 1023.3 1023.2 0.0
18/01:00pm 17.0 14.6 9.9 63 3.7 NE 13 17 7 9 1023.3 1023.2 0.0
18/12:30pm 14.0 11.9 8.2 68 2.9 NE 9 13 5 7 1023.9 1023.8 0.0
18/12:00pm 14.2 11.2 7.9 66 3.1 NE 13 19 7 10 1024.2 1024.1 0.0
18/11:30am 15.9 12.8 8.9 63 3.6 NE 15 20 8 11 1024.4 1024.3 0.0
18/11:00am 16.4 14.4 10.3 67 3.2 ENE 11 17 6 9 1024.8 1024.7 0.0
18/10:30am 14.8 12.2 9.4 70 2.8 E 13 19 7 10 1024.4 1024.3 0.0
18/10:00am 14.4 12.1 10.4 77 2.1 E 13 19 7 10 1024.7 1024.6 0.0
18/09:30am 13.9 12.4 10.7 81 1.7 ESE 9 13 5 7 1024.8 1024.7 0.0
18/09:00am 11.8 9.2 9.2 84 1.3 ESE 13 15 7 8 1024.9 1024.8 0.0
18/08:30am 11.7 10.0 9.8 88 1.0 ESE 9 11 5 6 1024.7 1024.6 0.0
18/08:00am 9.5 6.9 7.9 90 0.8 ESE 11 13 6 7 1024.4 1024.3 0.0
18/07:30am 8.2 4.9 6.5 89 0.8 SE 13 15 7 8 1024.6 1024.5 0.0
18/07:00am 7.7 4.3 5.8 88 0.9 SE 13 15 7 8 1024.5 1024.4 0.0
18/06:30am 7.9 4.9 6.0 88 0.9 ESE 11 13 6 7 1024.4 1024.3 0.0
18/06:00am 7.6 4.9 5.7 88 0.9 SE 9 13 5 7 1024.2 1024.1 0.0
18/05:30am 7.8 3.6 5.9 88 0.9 ESE 17 17 9 9 1024.4 1024.3 0.0
18/05:00am 7.5 4.0 5.5 87 0.9 SE 13 13 7 7 1024.7 1024.6 0.0
18/04:30am 7.5 3.3 5.5 87 0.9 ESE 17 17 9 9 1024.5 1024.4 0.0
18/04:00am 7.5 2.8 5.3 86 1.0 ESE 19 19 10 10 1024.8 1024.7 0.0
18/03:30am 7.4 3.1 5.2 86 1.0 SE 17 19 9 10 1025.2 1025.1 0.0
18/03:00am 7.4 3.8 5.0 85 1.1 SE 13 17 7 9 1025.5 1025.4 0.0
18/02:30am 7.5 3.5 5.1 85 1.1 SE 15 17 8 9 1025.6 1025.5 0.0
18/02:00am 7.5 3.9 5.0 84 1.1 SE 13 15 7 8 1025.8 1025.7 0.0
18/01:30am 7.7 3.7 5.0 83 1.2 SE 15 17 8 9 1025.8 1025.7 0.0
18/01:00am 7.3 3.6 4.6 83 1.2 SE 13 15 7 8 1026.0 1025.9 0.0
18/12:30am 7.7 4.1 4.8 82 1.3 SE 13 15 7 8 1026.1 1026.0 0.0
18/12:00am 7.8 3.8 4.9 82 1.3 SE 15 17 8 9 1026.2 1026.1 0.0
 
Date/Time
WST
Temp
°C
App
Temp
°C
Dew
Point
°C
Rel
Hum
%
Delta-T
°C
Wind Press
QNH
hPa
Press
MSL
hPa
Rain since
9am
mm
Dir  Spd
km/h
Gust
km/h
Spd
kts
Gust
kts
17/11:30pm 8.1 4.1 5.0 81 1.4 SSE 15 17 8 9 1026.3 1026.2 0.0
17/11:00pm 8.3 4.7 4.9 79 1.5 SSE 13 17 7 9 1026.4 1026.3 0.0
17/10:30pm 9.0 5.1 5.4 78 1.6 SSE 15 19 8 10 1026.8 1026.7 0.0
17/10:00pm 8.9 4.6 5.1 77 1.7 SSE 17 20 9 11 1026.9 1026.8 0.0
17/09:30pm 8.6 4.5 4.2 74 1.9 SSE 15 19 8 10 1027.1 1027.0 0.0
17/09:00pm 9.0 4.5 4.0 71 2.2 SSE 17 19 9 10 1027.1 1027.0 0.0
17/08:30pm 9.4 4.9 4.2 70 2.3 SSE 17 20 9 11 1027.1 1027.0 0.0
17/08:00pm 9.9 5.4 4.3 68 2.5 SSE 17 20 9 11 1027.0 1026.9 0.0
17/07:30pm 10.1 5.6 4.0 66 2.7 SSE 17 22 9 12 1026.8 1026.7 0.0
17/07:00pm 10.5 5.4 4.2 65 2.8 S 20 24 11 13 1026.8 1026.7 0.0

Other formats

Comma delimited format used in spreadsheet applications
http://www.bom.gov.au/fwo/IDW60801/IDW60801.94600.axf

JavaScript Object Notation format (JSON) in row-major order
http://www.bom.gov.au/fwo/IDW60801/IDW60801.94600.json

Data quality

Most of these data are generated automatically and are frequently updated. Quality checks on data are not normally performed. It is possible for incorrect values to appear. Refer to information at About Latest Weather Observations and please check the disclaimer before using these data.